Time;durP1;ratioP1;P1;durP2;ratioP2;P2;SDS_P1;SDS_P2;PMS_P1;PMS_P2;Temp;Humidity;BMP_temperature;BMP_pressure;BME280_temperature;BME280_humidity;BME280_pressure;Samples;Min_cycle;Max_cycle;Signal;HPM_P1;HPM_P2
2023/06/05 00:01:35;;;;;;;9.48;4.88;;;12.50;99.90;;;;;;5119272;28;20103;-59
2023/06/05 00:04:02;;;;;;;7.72;3.92;;;12.60;99.90;;;;;;5119698;28;20054;-60
2023/06/05 00:06:28;;;;;;;8.82;4.38;;;12.70;99.90;;;;;;5119929;27;20043;-60
2023/06/05 00:08:54;;;;;;;7.93;4.25;;;12.60;99.90;;;;;;5118759;28;20051;-59
2023/06/05 00:11:20;;;;;;;10.10;3.47;;;12.70;99.90;;;;;;5120063;28;20079;-60
2023/06/05 00:13:46;;;;;;;8.38;4.25;;;12.60;99.90;;;;;;5118430;28;20587;-59
2023/06/05 00:16:11;;;;;;;7.35;3.35;;;12.70;99.90;;;;;;5120503;28;20031;-58
2023/06/05 00:18:37;;;;;;;7.95;3.80;;;12.70;99.90;;;;;;5119902;28;20474;-59
2023/06/05 00:21:03;;;;;;;6.72;3.67;;;12.70;99.90;;;;;;5120191;28;20047;-59
2023/06/05 00:23:29;;;;;;;7.78;3.75;;;12.70;99.90;;;;;;5119904;28;20415;-60
2023/06/05 00:25:55;;;;;;;8.20;3.80;;;12.70;99.90;;;;;;5119808;28;20046;-59
2023/06/05 00:28:21;;;;;;;9.68;3.65;;;12.80;99.90;;;;;;5119614;28;20036;-61
2023/06/05 00:30:46;;;;;;;7.40;3.72;;;12.80;99.90;;;;;;5118998;28;20110;-60
2023/06/05 00:33:12;;;;;;;7.03;3.63;;;12.80;99.90;;;;;;5120337;28;20060;-60
2023/06/05 00:35:39;;;;;;;7.80;3.72;;;12.70;99.90;;;;;;5119402;28;20455;-59
2023/06/05 00:38:06;;;;;;;6.75;3.38;;;12.80;99.90;;;;;;5119768;28;20039;-60
2023/06/05 00:40:32;;;;;;;6.38;3.00;;;12.70;99.90;;;;;;5118396;28;20098;-59
2023/06/05 00:42:58;;;;;;;8.75;3.78;;;12.80;99.90;;;;;;5119298;28;20043;-60
2023/06/05 00:45:24;;;;;;;7.47;3.53;;;12.80;99.90;;;;;;5119419;28;20071;-59
2023/06/05 00:47:50;;;;;;;7.90;3.40;;;12.80;99.90;;;;;;5119564;28;20031;-60
2023/06/05 00:50:17;;;;;;;8.82;3.22;;;12.80;99.90;;;;;;5117971;28;20040;-60
2023/06/05 00:52:43;;;;;;;8.27;3.60;;;12.60;99.90;;;;;;5118969;28;20054;-60
2023/06/05 00:55:10;;;;;;;6.05;3.10;;;12.70;99.90;;;;;;5119994;28;20047;-60
2023/06/05 00:57:38;;;;;;;8.02;3.53;;;12.80;99.90;;;;;;5119161;28;20490;-60
2023/06/05 01:00:07;;;;;;;6.90;3.58;;;12.70;99.90;;;;;;5119126;28;20088;-60
2023/06/05 01:02:34;;;;;;;7.72;3.40;;;12.80;99.90;;;;;;5118545;28;20490;-58
2023/06/05 01:05:00;;;;;;;7.40;3.58;;;12.70;99.90;;;;;;5119120;28;20550;-60
2023/06/05 01:07:27;;;;;;;7.43;3.85;;;12.80;99.90;;;;;;5119235;28;20084;-60
2023/06/05 01:09:54;;;;;;;9.00;3.90;;;12.70;99.90;;;;;;5118824;28;20067;-60
2023/06/05 01:12:41;;;;;;;7.03;4.13;;;12.60;99.90;;;;;;5119361;28;20068;-59
2023/06/05 01:15:08;;;;;;;8.10;4.38;;;12.60;99.90;;;;;;5118961;28;20047;-60
2023/06/05 01:17:35;;;;;;;10.05;4.72;;;12.70;99.90;;;;;;5119109;28;20588;-59
2023/06/05 01:20:07;;;;;;;8.43;5.30;;;12.60;99.90;;;;;;5119012;28;20040;-59
2023/06/05 01:22:37;;;;;;;9.13;5.15;;;12.60;99.90;;;;;;5118276;28;20078;-59
2023/06/05 01:25:05;;;;;;;10.27;5.50;;;12.50;99.90;;;;;;5119276;28;20044;-60
2023/06/05 01:27:40;;;;;;;10.27;5.20;;;12.50;99.90;;;;;;5118678;28;20052;-59
2023/06/05 01:30:28;;;;;;;9.73;6.03;;;12.50;99.90;;;;;;5118933;28;20052;-59
2023/06/05 01:33:02;;;;;;;8.82;5.70;;;12.50;99.90;;;;;;5118254;28;20054;-59
2023/06/05 01:35:33;;;;;;;11.27;5.90;;;12.50;99.90;;;;;;5116931;28;20277;-60
2023/06/05 01:38:02;;;;;;;9.10;5.15;;;12.50;99.90;;;;;;5119154;28;20095;-59
2023/06/05 01:40:30;;;;;;;9.82;5.53;;;12.50;99.90;;;;;;5118457;28;20043;-60
2023/06/05 01:42:57;;;;;;;10.43;5.25;;;12.50;99.90;;;;;;5118305;28;20052;-59
2023/06/05 01:45:24;;;;;;;9.57;5.18;;;12.70;99.90;;;;;;5118163;28;20118;-60
2023/06/05 01:47:50;;;;;;;10.20;5.40;;;12.60;99.90;;;;;;5118626;28;20562;-60
2023/06/05 01:50:17;;;;;;;8.85;5.03;;;12.60;99.90;;;;;;5118188;28;20071;-60
2023/06/05 01:52:46;;;;;;;9.18;5.55;;;12.60;99.90;;;;;;5118055;28;20608;-59
2023/06/05 01:55:26;;;;;;;8.88;5.28;;;12.60;99.90;;;;;;5118591;28;20040;-60
2023/06/05 01:57:52;;;;;;;8.32;4.78;;;12.60;99.90;;;;;;5118279;28;20077;-60
2023/06/05 02:00:18;;;;;;;10.38;5.13;;;12.60;99.90;;;;;;5118226;28;20051;-59
2023/06/05 02:02:47;;;;;;;9.52;4.80;;;12.50;99.90;;;;;;5117675;28;20091;-60
2023/06/05 02:05:14;;;;;;;8.25;4.10;;;12.50;99.90;;;;;;5117809;28;20107;-60
2023/06/05 02:07:43;;;;;;;8.75;4.00;;;12.40;99.90;;;;;;5118774;28;20039;-59
2023/06/05 02:10:09;;;;;;;6.45;3.60;;;12.50;99.90;;;;;;5117943;28;20403;-63
2023/06/05 02:12:37;;;;;;;6.97;3.42;;;12.50;99.90;;;;;;5118335;28;20051;-60
2023/06/05 02:15:03;;;;;;;7.10;3.35;;;12.40;99.90;;;;;;5118256;28;20036;-60
2023/06/05 02:17:29;;;;;;;6.75;3.22;;;12.50;99.90;;;;;;5118233;28;20078;-60
2023/06/05 02:19:55;;;;;;;7.38;3.45;;;12.60;99.90;;;;;;5117935;28;20043;-60
2023/06/05 02:22:23;;;;;;;6.50;3.33;;;12.50;99.90;;;;;;5116272;28;20051;-60
2023/06/05 02:24:51;;;;;;;7.55;3.53;;;12.50;99.90;;;;;;5118634;28;20039;-59
2023/06/05 02:27:18;;;;;;;6.13;3.28;;;12.50;99.90;;;;;;5116219;28;20439;-59
2023/06/05 02:29:43;;;;;;;7.45;3.70;;;12.50;99.90;;;;;;5118151;28;20103;-59
2023/06/05 02:32:10;;;;;;;6.32;2.97;;;12.50;99.90;;;;;;5117519;28;20050;-59
2023/06/05 02:34:36;;;;;;;7.25;3.35;;;12.50;99.90;;;;;;5117966;28;20040;-60
2023/06/05 02:37:02;;;;;;;8.07;3.10;;;12.60;99.90;;;;;;5118068;28;20044;-61
2023/06/05 02:39:30;;;;;;;6.05;3.33;;;12.60;99.90;;;;;;5116420;28;20055;-61
2023/06/05 02:41:56;;;;;;;7.10;3.78;;;12.60;99.90;;;;;;5118144;28;20055;-60
2023/06/05 02:44:22;;;;;;;6.40;2.95;;;12.50;99.90;;;;;;5117685;28;20043;-61
2023/06/05 02:46:48;;;;;;;7.45;3.45;;;12.50;99.90;;;;;;5117914;28;20511;-61
2023/06/05 02:49:13;;;;;;;7.10;3.67;;;12.60;99.90;;;;;;5117838;28;20162;-61
2023/06/05 02:51:39;;;;;;;7.43;3.25;;;12.40;99.90;;;;;;5117652;28;20131;-60
2023/06/05 02:54:05;;;;;;;6.93;3.40;;;12.40;99.90;;;;;;5117575;28;20044;-61
2023/06/05 02:56:31;;;;;;;8.10;3.00;;;12.40;99.90;;;;;;5116141;28;20955;-61
2023/06/05 02:58:56;;;;;;;6.30;3.35;;;12.40;99.90;;;;;;5118314;28;20040;-59
2023/06/05 03:01:25;;;;;;;6.70;3.30;;;12.50;99.90;;;;;;5119123;28;20130;-60
2023/06/05 03:03:52;;;;;;;6.80;3.70;;;12.50;99.90;;;;;;5121416;28;20058;-61
2023/06/05 03:06:18;;;;;;;8.27;3.53;;;12.50;99.90;;;;;;5121411;28;20071;-61
2023/06/05 03:08:44;;;;;;;7.53;3.40;;;12.50;99.90;;;;;;5121254;27;20059;-61
2023/06/05 03:11:10;;;;;;;6.32;3.30;;;12.60;99.90;;;;;;5119855;28;20103;-61
2023/06/05 03:13:36;;;;;;;8.80;3.58;;;12.50;99.90;;;;;;5121240;28;20052;-61
2023/06/05 03:16:02;;;;;;;7.82;3.22;;;12.50;99.90;;;;;;5121722;28;20035;-61
2023/06/05 03:18:28;;;;;;;8.35;3.92;;;12.40;99.90;;;;;;5120742;28;20039;-60
2023/06/05 03:20:55;;;;;;;6.03;3.25;;;12.40;99.90;;;;;;5121489;28;20076;-61
2023/06/05 03:23:27;;;;;;;6.95;3.40;;;12.40;99.90;;;;;;5119517;28;20055;-60
2023/06/05 03:25:54;;;;;;;8.25;3.78;;;12.50;99.90;;;;;;5121217;28;20040;-60
2023/06/05 03:28:22;;;;;;;8.60;4.10;;;12.60;99.90;;;;;;5121222;28;20051;-61
2023/06/05 03:30:48;;;;;;;9.48;4.40;;;12.60;99.90;;;;;;5120802;28;20067;-61
2023/06/05 03:33:17;;;;;;;6.78;3.63;;;12.50;99.90;;;;;;5121573;28;20044;-60
2023/06/05 03:35:45;;;;;;;6.75;3.58;;;12.60;99.90;;;;;;5120734;28;20075;-60
2023/06/05 03:38:10;;;;;;;7.97;3.95;;;12.50;99.90;;;;;;5121029;28;20534;-61
2023/06/05 03:40:39;;;;;;;8.40;4.20;;;12.60;99.90;;;;;;5120881;28;20099;-61
2023/06/05 03:43:05;;;;;;;9.40;4.10;;;12.60;99.90;;;;;;5120727;28;20051;-60
2023/06/05 03:45:31;;;;;;;7.20;3.72;;;12.60;99.90;;;;;;5119215;28;20047;-61
2023/06/05 03:47:59;;;;;;;8.32;3.78;;;12.50;99.90;;;;;;5120740;28;20052;-61
2023/06/05 03:50:28;;;;;;;10.05;3.92;;;12.50;99.90;;;;;;5120958;28;20112;-60
2023/06/05 03:53:02;;;;;;;7.03;3.55;;;12.60;99.90;;;;;;5120183;28;20049;-60
2023/06/05 03:55:40;;;;;;;7.28;3.50;;;12.50;99.90;;;;;;5118973;28;20114;-60
2023/06/05 03:58:08;;;;;;;7.43;3.75;;;12.60;99.90;;;;;;5120491;28;20047;-61
2023/06/05 04:00:34;;;;;;;9.40;3.67;;;12.60;99.90;;;;;;5120474;28;20083;-60
2023/06/05 04:03:00;;;;;;;6.57;3.30;;;12.60;99.90;;;;;;5120359;28;20043;-60
2023/06/05 04:05:25;;;;;;;6.82;3.35;;;12.50;99.90;;;;;;5119628;28;20056;-60
2023/06/05 04:07:51;;;;;;;7.25;3.20;;;12.50;99.90;;;;;;5120003;28;20044;-60
2023/06/05 04:10:17;;;;;;;8.25;3.17;;;12.60;99.90;;;;;;5119549;28;20096;-61
2023/06/05 04:12:42;;;;;;;7.35;3.38;;;12.70;99.90;;;;;;5119301;27;20066;-60
2023/06/05 04:15:09;;;;;;;10.93;3.83;;;12.70;99.90;;;;;;5119754;28;20047;-60
2023/06/05 04:17:37;;;;;;;7.00;3.30;;;12.60;99.90;;;;;;5119724;27;20055;-60
2023/06/05 04:20:03;;;;;;;6.80;3.33;;;12.70;99.90;;;;;;5119725;28;20086;-60
2023/06/05 04:22:29;;;;;;;6.13;3.25;;;12.50;99.90;;;;;;5119672;28;20124;-60
2023/06/05 04:24:55;;;;;;;7.00;3.50;;;12.70;99.90;;;;;;5118983;28;20060;-60
2023/06/05 04:27:21;;;;;;;7.13;3.40;;;12.60;99.90;;;;;;5119870;28;20670;-60
2023/06/05 04:29:49;;;;;;;6.30;2.78;;;12.60;99.90;;;;;;5120005;28;20258;-61
2023/06/05 04:32:16;;;;;;;7.03;3.17;;;12.70;99.90;;;;;;5119387;28;20118;-60
2023/06/05 04:34:42;;;;;;;6.90;2.85;;;12.70;99.90;;;;;;5119704;28;20059;-61
2023/06/05 04:37:07;;;;;;;6.70;3.20;;;12.70;99.90;;;;;;5119862;28;20142;-60
2023/06/05 04:39:33;;;;;;;6.50;2.60;;;12.70;99.90;;;;;;5118103;28;20047;-60
2023/06/05 04:41:58;;;;;;;6.55;2.80;;;12.70;99.90;;;;;;5118747;28;20036;-60
2023/06/05 04:44:24;;;;;;;5.50;2.35;;;12.80;99.90;;;;;;5119499;28;20085;-59
2023/06/05 04:46:50;;;;;;;5.93;2.40;;;12.70;99.90;;;;;;5119422;28;20055;-60
2023/06/05 04:49:16;;;;;;;6.20;1.90;;;12.70;99.90;;;;;;5119350;28;20099;-60
2023/06/05 04:51:43;;;;;;;5.85;2.78;;;12.70;99.90;;;;;;5119135;28;20059;-60
2023/06/05 04:54:10;;;;;;;5.35;2.33;;;12.80;99.90;;;;;;5118054;28;20086;-60
2023/06/05 04:56:38;;;;;;;4.88;2.10;;;12.80;99.90;;;;;;5118913;28;20047;-60
2023/06/05 04:59:03;;;;;;;5.57;2.20;;;12.80;99.90;;;;;;5119786;27;20067;-60
2023/06/05 05:01:29;;;;;;;5.30;2.47;;;12.80;99.90;;;;;;5118535;27;20039;-60
2023/06/05 05:03:55;;;;;;;4.72;2.17;;;12.80;99.90;;;;;;5119195;28;20050;-60
2023/06/05 05:06:21;;;;;;;5.97;2.03;;;13.00;99.90;;;;;;5118865;28;20079;-60
2023/06/05 05:08:50;;;;;;;4.30;1.85;;;13.00;99.90;;;;;;5118975;28;20040;-58
2023/06/05 05:11:17;;;;;;;4.95;2.08;;;13.00;99.90;;;;;;5118677;28;20078;-59
2023/06/05 05:13:43;;;;;;;6.68;2.22;;;13.10;99.90;;;;;;5118374;28;20031;-59
2023/06/05 05:16:10;;;;;;;5.35;2.10;;;13.10;99.90;;;;;;5119540;28;20032;-60
2023/06/05 05:18:40;;;;;;;5.07;2.30;;;13.10;99.90;;;;;;5116837;28;20044;-59
2023/06/05 05:21:06;;;;;;;6.63;2.20;;;13.00;99.90;;;;;;5118747;28;20102;-59
2023/06/05 05:23:35;;;;;;;5.00;2.20;;;13.10;99.90;;;;;;5118237;28;20047;-59
2023/06/05 05:26:02;;;;;;;4.82;2.15;;;13.00;99.90;;;;;;5118395;28;20085;-59
2023/06/05 05:28:28;;;;;;;4.85;1.98;;;13.10;99.90;;;;;;5118667;28;20417;-59
2023/06/05 05:30:56;;;;;;;6.57;2.30;;;13.10;99.90;;;;;;5118182;28;20040;-59
2023/06/05 05:33:22;;;;;;;5.03;2.25;;;13.20;99.90;;;;;;5118974;28;20047;-60
2023/06/05 05:35:48;;;;;;;5.07;2.30;;;13.30;99.90;;;;;;5118206;28;20078;-60
2023/06/05 05:38:14;;;;;;;5.35;2.10;;;13.30;99.90;;;;;;5118636;28;20035;-60
2023/06/05 05:40:40;;;;;;;5.93;2.10;;;13.30;99.90;;;;;;5118157;28;20047;-57
2023/06/05 05:43:05;;;;;;;4.55;1.83;;;13.40;99.90;;;;;;5118406;28;20043;-60
2023/06/05 05:45:31;;;;;;;4.82;2.22;;;13.30;99.90;;;;;;5118450;28;20071;-60
2023/06/05 05:47:57;;;;;;;6.15;2.38;;;13.40;99.90;;;;;;5113745;28;20051;-60
2023/06/05 05:50:23;;;;;;;5.22;2.53;;;13.40;99.90;;;;;;5115469;28;20090;-60
2023/06/05 05:52:51;;;;;;;7.32;2.80;;;13.30;99.90;;;;;;5114570;28;20050;-60
2023/06/05 05:55:17;;;;;;;5.32;2.42;;;13.40;99.90;;;;;;5115039;28;20105;-59
2023/06/05 05:57:43;;;;;;;6.57;2.15;;;13.50;99.90;;;;;;5114467;28;20590;-60
2023/06/05 06:00:12;;;;;;;7.35;2.55;;;13.40;99.90;;;;;;5114914;28;20462;-59
2023/06/05 06:02:41;;;;;;;6.40;2.35;;;13.60;99.90;;;;;;5114138;28;20419;-60
2023/06/05 06:05:07;;;;;;;5.90;2.45;;;13.60;99.90;;;;;;5114514;28;20826;-60
2023/06/05 06:07:33;;;;;;;6.30;2.55;;;13.60;99.90;;;;;;5114676;28;20063;-60
2023/06/05 06:09:59;;;;;;;6.70;2.88;;;13.60;99.90;;;;;;5114226;28;20063;-60
2023/06/05 06:12:24;;;;;;;6.47;2.67;;;13.50;99.90;;;;;;5114861;28;20134;-60
2023/06/05 06:14:51;;;;;;;7.53;2.47;;;13.70;99.90;;;;;;5114489;28;20047;-60
2023/06/05 06:17:17;;;;;;;5.80;2.50;;;13.60;99.90;;;;;;5114568;28;20043;-60
2023/06/05 06:19:43;;;;;;;5.72;2.60;;;13.60;99.90;;;;;;5114424;28;20059;-60
2023/06/05 06:22:11;;;;;;;5.22;2.40;;;13.60;99.90;;;;;;5114060;28;20499;-60
2023/06/05 06:24:42;;;;;;;6.30;3.00;;;13.70;99.90;;;;;;5115033;28;20487;-61
2023/06/05 06:27:12;;;;;;;5.50;2.55;;;13.70;99.90;;;;;;5114291;28;20729;-59
2023/06/05 06:29:52;;;;;;;5.68;2.60;;;13.80;99.90;;;;;;5114764;28;20046;-58
2023/06/05 06:32:18;;;;;;;6.20;2.40;;;13.80;99.90;;;;;;5114349;28;20400;-60
2023/06/05 06:34:44;;;;;;;4.80;2.28;;;13.90;99.90;;;;;;5114212;28;20150;-61
2023/06/05 06:37:13;;;;;;;6.45;2.75;;;13.90;99.90;;;;;;5116891;28;20128;-61
2023/06/05 06:39:39;;;;;;;5.38;2.50;;;14.00;99.90;;;;;;5118194;28;20079;-60
2023/06/05 06:42:05;;;;;;;6.72;2.90;;;13.90;99.90;;;;;;5118951;28;20044;-60
2023/06/05 06:44:30;;;;;;;5.65;2.50;;;14.10;99.90;;;;;;5118566;27;20054;-60
2023/06/05 06:46:56;;;;;;;5.57;2.70;;;14.20;99.90;;;;;;5118268;28;20051;-60
2023/06/05 06:49:22;;;;;;;6.90;2.78;;;14.30;99.90;;;;;;5118581;28;20067;-61
2023/06/05 06:51:48;;;;;;;5.38;2.50;;;14.40;99.90;;;;;;5116436;28;20114;-60
2023/06/05 06:54:13;;;;;;;6.18;2.90;;;14.50;99.90;;;;;;5117509;28;20040;-60
2023/06/05 06:56:39;;;;;;;4.60;2.20;;;14.70;99.90;;;;;;5117889;28;20046;-60
2023/06/05 06:59:14;;;;;;;7.75;2.88;;;14.70;99.90;;;;;;5118212;28;20071;-61
2023/06/05 07:01:45;;;;;;;6.15;2.70;;;14.80;99.90;;;;;;5118123;28;20047;-60
2023/06/05 07:04:16;;;;;;;7.28;2.90;;;14.70;99.90;;;;;;5118109;28;20093;-61
2023/06/05 07:06:44;;;;;;;6.32;2.80;;;14.70;99.90;;;;;;5115870;28;20047;-60
2023/06/05 07:09:10;;;;;;;6.38;2.63;;;14.90;99.90;;;;;;5117955;28;20048;-60
2023/06/05 07:11:36;;;;;;;6.10;2.58;;;14.90;99.90;;;;;;5118097;28;20557;-59
2023/06/05 07:14:01;;;;;;;5.28;2.38;;;14.90;99.90;;;;;;5117586;28;20063;-60
2023/06/05 07:16:27;;;;;;;7.50;3.13;;;14.90;99.90;;;;;;5118040;28;20039;-60
2023/06/05 07:18:54;;;;;;;6.22;2.70;;;14.80;99.90;;;;;;5117067;28;20043;-60
2023/06/05 07:21:21;;;;;;;6.65;2.65;;;14.80;99.90;;;;;;5116511;28;20056;-60
2023/06/05 07:23:51;;;;;;;6.43;2.83;;;15.00;99.90;;;;;;5117279;28;20417;-60
2023/06/05 07:26:20;;;;;;;5.20;2.30;;;15.30;99.90;;;;;;5117863;28;20071;-61
2023/06/05 07:28:49;;;;;;;7.40;2.67;;;15.70;99.90;;;;;;5116821;28;20075;-60
2023/06/05 07:31:15;;;;;;;7.25;3.47;;;15.70;99.90;;;;;;5117251;28;20044;-60
2023/06/05 07:33:42;;;;;;;5.03;2.50;;;15.60;99.90;;;;;;5116253;28;20132;-61
2023/06/05 07:36:08;;;;;;;6.18;2.72;;;15.60;99.90;;;;;;5117956;28;20047;-60
2023/06/05 07:38:33;;;;;;;6.05;2.75;;;15.40;99.90;;;;;;5117907;28;20047;-60
2023/06/05 07:41:01;;;;;;;5.50;2.55;;;15.40;99.90;;;;;;5117562;28;20663;-60
2023/06/05 07:43:27;;;;;;;7.07;2.45;;;15.40;99.90;;;;;;5117521;28;20092;-60
2023/06/05 07:45:54;;;;;;;6.43;2.72;;;15.70;99.90;;;;;;5117134;28;20047;-60
2023/06/05 07:48:20;;;;;;;6.05;2.63;;;15.90;99.90;;;;;;5116009;27;20051;-60
2023/06/05 07:50:46;;;;;;;7.22;2.92;;;15.70;99.90;;;;;;5117691;28;20054;-61
2023/06/05 07:53:11;;;;;;;5.95;2.38;;;15.70;99.90;;;;;;5117513;28;20043;-60
2023/06/05 07:55:37;;;;;;;5.60;2.40;;;15.60;99.90;;;;;;5117307;28;20072;-61
2023/06/05 07:58:03;;;;;;;5.38;2.13;;;15.60;99.90;;;;;;5116645;28;20040;-60
2023/06/05 08:00:28;;;;;;;5.47;2.35;;;15.40;99.90;;;;;;5116764;28;20047;-60
2023/06/05 08:02:54;;;;;;;5.55;2.47;;;15.50;99.90;;;;;;5117242;28;20069;-59
2023/06/05 08:05:20;;;;;;;5.65;2.72;;;15.40;99.90;;;;;;5115961;28;20062;-60
2023/06/05 08:07:46;;;;;;;5.65;2.45;;;15.60;99.90;;;;;;5117262;28;20111;-60
2023/06/05 08:10:15;;;;;;;7.68;2.47;;;15.90;99.90;;;;;;5116735;27;20048;-59
2023/06/05 08:12:41;;;;;;;6.47;2.28;;;16.00;99.90;;;;;;5098808;28;20108;-60
2023/06/05 08:15:07;;;;;;;5.20;2.38;;;16.20;99.90;;;;;;5116783;28;20040;-59
2023/06/05 08:17:32;;;;;;;5.82;2.72;;;16.10;99.90;;;;;;5115906;28;20070;-58
2023/06/05 08:19:58;;;;;;;5.35;2.03;;;15.90;99.90;;;;;;5117142;28;20043;-59
2023/06/05 08:22:24;;;;;;;6.35;2.47;;;16.00;99.90;;;;;;5111894;28;20051;-59
2023/06/05 08:24:53;;;;;;;5.50;2.20;;;16.00;99.90;;;;;;5097007;28;20076;-59
2023/06/05 08:27:18;;;;;;;6.30;2.55;;;16.30;99.90;;;;;;5095103;28;20044;-59
2023/06/05 08:29:44;;;;;;;6.15;2.40;;;16.50;99.90;;;;;;5096122;28;20044;-59
2023/06/05 08:32:10;;;;;;;5.18;2.22;;;16.10;99.90;;;;;;5096178;28;20040;-59
2023/06/05 08:34:36;;;;;;;7.00;2.65;;;16.30;99.90;;;;;;5095910;28;20050;-59
2023/06/05 08:37:02;;;;;;;5.65;2.92;;;16.30;99.90;;;;;;5096291;28;20472;-59
2023/06/05 08:39:31;;;;;;;5.95;2.78;;;16.20;99.90;;;;;;5095960;28;20059;-59
2023/06/05 08:42:02;;;;;;;6.93;3.10;;;16.10;99.90;;;;;;5096723;28;20088;-59
2023/06/05 08:44:29;;;;;;;7.37;3.07;;;16.10;99.90;;;;;;5094927;28;20055;-59
2023/06/05 08:47:02;;;;;;;5.82;2.60;;;16.10;99.90;;;;;;5097735;28;20035;-58
2023/06/05 08:49:36;;;;;;;6.68;2.80;;;15.80;99.90;;;;;;5098971;28;20071;-59
2023/06/05 08:52:05;;;;;;;8.25;3.03;;;15.60;99.90;;;;;;5098977;28;20067;-59
2023/06/05 08:54:41;;;;;;;5.55;2.45;;;15.70;99.90;;;;;;5102198;28;20505;-58
2023/06/05 08:57:07;;;;;;;6.80;2.75;;;15.40;99.90;;;;;;5119065;28;20070;-59
2023/06/05 08:59:34;;;;;;;5.70;2.78;;;15.80;99.90;;;;;;5119140;28;20040;-59
2023/06/05 09:02:00;;;;;;;5.70;2.50;;;16.00;99.90;;;;;;5116896;28;20541;-59
2023/06/05 09:04:29;;;;;;;5.93;2.75;;;16.40;99.90;;;;;;5118111;28;20099;-59
2023/06/05 09:06:58;;;;;;;5.78;2.30;;;16.60;99.90;;;;;;5118493;28;20040;-59
2023/06/05 09:09:25;;;;;;;7.93;2.97;;;16.60;99.90;;;;;;5118245;28;20055;-59
2023/06/05 09:12:04;;;;;;;8.30;2.55;;;16.40;99.90;;;;;;5119407;28;20051;-59
2023/06/05 09:14:33;;;;;;;6.03;2.63;;;16.70;99.90;;;;;;5118907;28;20093;-59
2023/06/05 09:17:00;;;;;;;5.55;2.33;;;16.70;99.90;;;;;;5118785;28;20123;-59
2023/06/05 09:19:37;;;;;;;4.57;1.90;;;16.80;99.90;;;;;;5118834;28;20032;-59
2023/06/05 09:22:02;;;;;;;5.93;2.47;;;16.80;99.90;;;;;;5118549;28;20051;-58
2023/06/05 09:24:30;;;;;;;6.65;2.42;;;16.50;99.90;;;;;;5119464;28;20075;-59
2023/06/05 09:27:05;;;;;;;5.57;2.45;;;16.70;99.90;;;;;;5118442;28;20063;-58
2023/06/05 09:29:43;;;;;;;5.20;2.40;;;16.90;99.90;;;;;;5118625;28;20047;-57
2023/06/05 09:32:20;;;;;;;6.55;2.33;;;17.10;99.90;;;;;;5117789;28;20051;-59
2023/06/05 09:34:59;;;;;;;4.88;2.10;;;17.10;99.90;;;;;;5118343;28;20043;-59
2023/06/05 09:37:36;;;;;;;5.07;2.17;;;17.20;99.90;;;;;;5119033;28;20039;-59
2023/06/05 09:40:04;;;;;;;4.85;2.10;;;17.30;99.90;;;;;;5116953;28;20054;-58
2023/06/05 09:42:33;;;;;;;4.82;2.10;;;17.30;99.90;;;;;;5118728;28;20055;-59
2023/06/05 09:45:00;;;;;;;5.28;2.22;;;17.30;99.90;;;;;;5118700;28;20035;-59
2023/06/05 09:47:26;;;;;;;6.05;2.10;;;17.40;99.90;;;;;;5118626;28;20360;-59
2023/06/05 09:49:52;;;;;;;5.65;2.28;;;17.20;99.90;;;;;;5118691;28;20046;-59
2023/06/05 09:52:18;;;;;;;4.65;1.90;;;17.40;99.90;;;;;;5118361;28;20051;-59
2023/06/05 09:54:45;;;;;;;5.40;2.20;;;17.50;99.90;;;;;;5118950;28;20044;-58
2023/06/05 09:57:14;;;;;;;4.63;2.08;;;17.50;99.90;;;;;;5118155;28;20069;-58
2023/06/05 09:59:51;;;;;;;5.10;2.22;;;17.70;99.90;;;;;;5118268;28;20101;-59
2023/06/05 10:02:18;;;;;;;4.72;2.05;;;17.30;99.90;;;;;;5117889;28;20050;-59
2023/06/05 10:04:51;;;;;;;6.05;2.10;;;17.50;99.90;;;;;;5117947;28;20039;-59
2023/06/05 10:07:18;;;;;;;5.53;2.22;;;17.60;99.90;;;;;;5118776;28;20178;-59
2023/06/05 10:09:48;;;;;;;4.65;2.10;;;17.60;99.90;;;;;;5117560;28;20039;-60
2023/06/05 10:12:15;;;;;;;5.60;2.13;;;17.00;99.90;;;;;;5117822;28;20088;-60
2023/06/05 10:14:42;;;;;;;5.40;2.10;;;17.20;99.90;;;;;;5117551;28;20445;-60
2023/06/05 10:17:11;;;;;;;6.43;2.80;;;17.10;99.90;;;;;;5118192;28;20044;-60
2023/06/05 10:19:40;;;;;;;5.40;2.20;;;17.40;99.90;;;;;;5118098;28;20043;-60
2023/06/05 10:22:06;;;;;;;5.95;2.55;;;17.60;99.90;;;;;;5116901;28;20051;-60
2023/06/05 10:24:37;;;;;;;6.18;2.13;;;17.80;99.90;;;;;;5117717;28;20044;-61
2023/06/05 10:27:19;;;;;;;6.22;2.55;;;17.60;99.90;;;;;;5118073;28;20050;-60
2023/06/05 10:30:00;;;;;;;5.68;2.38;;;17.50;99.90;;;;;;5118168;28;20103;-59
2023/06/05 10:32:29;;;;;;;5.60;2.20;;;17.50;99.90;;;;;;5117775;28;20473;-61
2023/06/05 10:35:18;;;;;;;8.52;3.58;;;17.60;99.90;;;;;;5118113;28;20051;-60
2023/06/05 10:37:53;;;;;;;6.00;2.72;;;17.70;99.90;;;;;;5118367;28;20058;-59
2023/06/05 10:40:19;;;;;;;6.03;2.35;;;17.90;99.90;;;;;;5118021;28;20044;-60
2023/06/05 10:42:45;;;;;;;6.28;2.17;;;18.00;99.90;;;;;;5118072;28;20043;-60
2023/06/05 10:45:11;;;;;;;5.43;2.13;;;17.90;99.90;;;;;;5116413;28;20112;-60
2023/06/05 10:47:37;;;;;;;6.20;2.80;;;17.90;99.90;;;;;;5117787;28;20050;-60
2023/06/05 10:50:27;;;;;;;4.55;1.80;;;17.90;99.90;;;;;;5118195;28;20062;-59
2023/06/05 10:52:55;;;;;;;5.50;2.47;;;18.00;99.90;;;;;;5117703;28;20051;-60
2023/06/05 10:55:22;;;;;;;6.95;2.50;;;17.90;99.90;;;;;;5116663;28;20221;-60
2023/06/05 10:58:00;;;;;;;7.68;2.35;;;17.70;99.90;;;;;;5116241;28;20506;-60
2023/06/05 11:00:27;;;;;;;5.70;2.25;;;17.80;99.90;;;;;;5117940;28;20035;-60
2023/06/05 11:02:53;;;;;;;6.65;2.47;;;18.00;99.90;;;;;;5117686;28;20052;-60
2023/06/05 11:05:20;;;;;;;6.25;2.20;;;17.80;99.90;;;;;;5117411;28;20054;-60
2023/06/05 11:07:46;;;;;;;6.93;2.40;;;17.80;99.90;;;;;;5117793;28;20059;-60
2023/06/05 11:10:21;;;;;;;9.35;2.47;;;18.00;99.90;;;;;;5116228;28;20044;-60
2023/06/05 11:12:47;;;;;;;5.88;2.17;;;18.30;99.90;;;;;;5117734;28;20035;-60
2023/06/05 11:15:33;;;;;;;6.38;2.63;;;18.60;99.90;;;;;;5117639;28;20047;-60
2023/06/05 11:18:30;;;;;;;7.60;2.50;;;18.40;99.90;;;;;;5117564;28;20054;-60
2023/06/05 11:20:57;;;;;;;5.30;2.20;;;18.60;99.90;;;;;;5117946;28;20032;-60
2023/06/05 11:23:27;;;;;;;5.45;2.60;;;18.40;99.90;;;;;;5121254;28;20046;-59
2023/06/05 11:25:56;;;;;;;6.18;2.45;;;17.80;99.90;;;;;;5121363;28;20074;-60
2023/06/05 11:28:42;;;;;;;5.97;2.60;;;18.30;99.90;;;;;;5121270;28;20046;-60
2023/06/05 11:31:08;;;;;;;5.68;2.28;;;17.80;99.90;;;;;;5120805;28;20063;-63
2023/06/05 11:33:34;;;;;;;6.93;2.70;;;18.20;99.90;;;;;;5121591;28;20036;-60
2023/06/05 11:36:05;;;;;;;6.03;2.70;;;18.20;99.90;;;;;;5121562;28;20161;-60
2023/06/05 11:38:31;;;;;;;7.22;2.70;;;18.20;99.90;;;;;;5121203;28;20043;-60
2023/06/05 11:40:57;;;;;;;5.13;2.47;;;18.20;99.90;;;;;;5121136;28;20096;-60
2023/06/05 11:43:23;;;;;;;6.20;2.60;;;18.10;99.90;;;;;;5120915;28;20036;-60
2023/06/05 11:45:53;;;;;;;5.05;2.20;;;18.30;99.90;;;;;;5121595;28;20054;-60
2023/06/05 11:48:18;;;;;;;5.72;2.25;;;18.50;99.90;;;;;;5120842;28;20080;-60
2023/06/05 11:51:03;;;;;;;5.57;2.53;;;18.70;99.90;;;;;;5121176;28;20044;-60
2023/06/05 11:53:31;;;;;;;6.68;2.53;;;18.80;99.90;;;;;;5120823;28;20095;-61
2023/06/05 11:58:30;;;;;;;6.15;3.00;;;18.60;99.90;;;;;;5120984;27;20127;-61
2023/06/05 12:01:23;;;;;;;5.25;2.42;;;18.20;99.90;;;;;;5120179;28;20043;-60
2023/06/05 12:04:06;;;;;;;5.38;2.22;;;18.80;99.90;;;;;;5120679;28;20044;-60
2023/06/05 12:06:33;;;;;;;7.18;2.42;;;18.80;99.90;;;;;;5120231;28;20043;-58
2023/06/05 12:09:11;;;;;;;8.27;2.90;;;19.00;99.90;;;;;;5120590;28;20452;-60
2023/06/05 12:11:38;;;;;;;6.57;2.78;;;19.10;99.90;;;;;;5119618;28;20135;-60
2023/06/05 12:14:04;;;;;;;5.60;2.40;;;19.00;99.90;;;;;;5118725;28;20039;-60
2023/06/05 12:16:35;;;;;;;5.63;2.45;;;19.00;99.90;;;;;;5120716;28;20253;-60
2023/06/05 12:19:02;;;;;;;9.60;2.93;;;18.90;99.90;;;;;;5120377;28;20043;-60
2023/06/05 12:21:29;;;;;;;5.35;2.53;;;18.90;99.90;;;;;;5120106;28;20491;-61
2023/06/05 12:24:02;;;;;;;6.03;2.42;;;18.60;99.90;;;;;;5120346;28;20048;-61
2023/06/05 12:26:29;;;;;;;5.90;2.20;;;18.80;99.90;;;;;;5120141;28;20051;-61
2023/06/05 12:29:05;;;;;;;5.47;2.45;;;18.90;99.90;;;;;;5120784;28;20075;-60
2023/06/05 12:31:35;;;;;;;5.55;2.50;;;18.70;99.90;;;;;;5118290;28;20075;-61
2023/06/05 12:34:03;;;;;;;6.78;2.90;;;18.70;99.90;;;;;;5119618;28;20032;-60
2023/06/05 12:36:29;;;;;;;6.50;3.15;;;18.60;99.90;;;;;;5119666;28;20112;-61
2023/06/05 12:38:55;;;;;;;7.40;3.33;;;18.70;99.90;;;;;;5120026;28;20054;-61
2023/06/05 12:41:21;;;;;;;7.63;3.75;;;18.60;99.90;;;;;;5120076;27;20088;-61
2023/06/05 12:43:58;;;;;;;9.07;4.38;;;18.60;99.90;;;;;;5119528;28;20462;-61
2023/06/05 12:46:24;;;;;;;8.07;3.70;;;18.60;99.90;;;;;;5119988;28;20057;-61
2023/06/05 12:48:50;;;;;;;8.75;4.18;;;18.30;99.90;;;;;;5119802;28;20075;-61
2023/06/05 12:51:16;;;;;;;8.13;3.78;;;18.60;99.90;;;;;;5119661;28;20533;-61
2023/06/05 12:53:42;;;;;;;9.50;4.05;;;18.30;99.90;;;;;;5119433;28;20040;-61